Companheiros Cristo — CUCS8 — position and weather

sailwx.info

Track history (hours):
 
Tides and Currents Weather Stations Pressure Air Temp Water Temp Dewpoint Dewpoint Depression Visibility Wind Speed Wind Dir Waves Ship Positions

Companheiros Cristo

Last reported at 2017-Sep-21 16:29 UTC. Time now 2017-Sep-21 23:06 UTC.
Position N 39°17' W 009°37'.

MMSI: 263406390.

Date/timePositionNaut miles runAvg speedWind from/ knotsBaromVisibWave heightAir tempDewpointWater temp
2017-Sep-21 16:29N 39°17' W 009°37'3 6.5
2017-Sep-21 16:00N 39°18' W 009°33'3 6.9
2017-Sep-21 15:30N 39°19' W 009°29'4 7.2
2017-Sep-21 15:00N 39°21' W 009°25'17 1.2
2017-Sep-21 00:36N 39°14' W 009°46'1 6.2
2017-Sep-21 00:28N 39°13' W 009°46'3 6.1
2017-Sep-21 00:00N 39°10' W 009°46'3 6.8
2017-Sep-20 23:30N 39°07' W 009°47'4 7.1
2017-Sep-20 23:00N 39°03' W 009°48'3 7.0
2017-Sep-20 22:30N 39°00' W 009°49'3 6.9
2017-Sep-20 22:00N 38°57' W 009°50'3 6.6
2017-Sep-20 21:30N 38°54' W 009°51'4 1.8
2017-Sep-20 19:15N 38°50' W 009°50'0 1.3
2017-Sep-20 19:00N 38°50' W 009°50'1 1.4
2017-Sep-20 18:31N 38°51' W 009°50'30 0.6
2017-Sep-18 16:45N 39°19' W 009°36'1 5.9
2017-Sep-18 16:30N 39°19' W 009°34'3 6.0
2017-Sep-18 16:00N 39°20' W 009°30'3 6.0
2017-Sep-18 15:30N 39°20' W 009°26'3 0.4
2017-Sep-18 06:08N 39°21' W 009°22'0 0.0
2017-Sep-18 06:00N 39°21' W 009°22'3 1.7
2017-Sep-18 04:18N 39°20' W 009°26'2 5.8
2017-Sep-18 04:00N 39°20' W 009°28'3 5.9
2017-Sep-18 03:30N 39°19' W 009°32'3 5.9
2017-Sep-18 03:00N 39°19' W 009°35'4 3.1
2017-Sep-18 01:35N 39°17' W 009°40'1 7.0
2017-Sep-18 01:30N 39°16' W 009°41'3 6.7
2017-Sep-18 01:00N 39°13' W 009°42'3 6.8
2017-Sep-18 00:30N 39°10' W 009°44'3 6.6
2017-Sep-18 00:01N 39°07' W 009°45'3 6.7
2017-Sep-17 23:30N 39°04' W 009°48'3 6.5
2017-Sep-17 23:00N 39°01' W 009°50'5 0.1
2017-Sep-16 01:27N 39°04' W 009°44'3 6.6
2017-Sep-16 01:00N 39°06' W 009°42'3 6.7
2017-Sep-16 00:30N 39°09' W 009°39'3 6.4
2017-Sep-16 00:00N 39°11' W 009°36'3 6.5
2017-Sep-15 23:30N 39°13' W 009°33'3 6.5
2017-Sep-15 23:00N 39°16' W 009°30'3 6.4
2017-Sep-15 22:29N 39°18' W 009°26'2 0.1
2017-Sep-14 22:00N 39°19' W 009°29'9 2.6
2017-Sep-14 18:24N 39°16' W 009°40'0 1.0
2017-Sep-14 17:59N 39°16' W 009°40'1 1.1
2017-Sep-14 17:30N 39°16' W 009°41'0 0.7
2017-Sep-14 17:01N 39°15' W 009°40'4 7.5
2017-Sep-14 16:31N 39°17' W 009°36'4 7.2
2017-Sep-14 16:00N 39°18' W 009°32'3 6.8
2017-Sep-14 15:30N 39°20' W 009°28'  
2017-Sep-11 17:04N 39°15' W 009°43'0 6.6
2017-Sep-11 17:00N 39°16' W 009°42'  
Track history (hours):
 
Tides and Currents Weather Stations Pressure Air Temp Water Temp Dewpoint Dewpoint Depression Visibility Wind Speed Wind Dir Waves Ship Positions

Companheiros Cristo

Last reported at 2017-Sep-21 16:29 UTC. Time now 2017-Sep-21 23:06 UTC.
Position N 39°17' W 009°37'.

MMSI: 263406390.

Date/timePositionNaut miles runAvg speedWind from/ knotsBaromVisibWave heightAir tempDewpointWater temp
2017-Sep-21 16:29N 39°17' W 009°37'3 6.5
2017-Sep-21 16:00N 39°18' W 009°33'3 6.9
2017-Sep-21 15:30N 39°19' W 009°29'4 7.2
2017-Sep-21 15:00N 39°21' W 009°25'17 1.2
2017-Sep-21 00:36N 39°14' W 009°46'1 6.2
2017-Sep-21 00:28N 39°13' W 009°46'3 6.1
2017-Sep-21 00:00N 39°10' W 009°46'3 6.8
2017-Sep-20 23:30N 39°07' W 009°47'4 7.1
2017-Sep-20 23:00N 39°03' W 009°48'3 7.0
2017-Sep-20 22:30N 39°00' W 009°49'3 6.9
2017-Sep-20 22:00N 38°57' W 009°50'3 6.6
2017-Sep-20 21:30N 38°54' W 009°51'4 1.8
2017-Sep-20 19:15N 38°50' W 009°50'0 1.3
2017-Sep-20 19:00N 38°50' W 009°50'1 1.4
2017-Sep-20 18:31N 38°51' W 009°50'30 0.6
2017-Sep-18 16:45N 39°19' W 009°36'1 5.9
2017-Sep-18 16:30N 39°19' W 009°34'3 6.0
2017-Sep-18 16:00N 39°20' W 009°30'3 6.0
2017-Sep-18 15:30N 39°20' W 009°26'3 0.4
2017-Sep-18 06:08N 39°21' W 009°22'0 0.0
2017-Sep-18 06:00N 39°21' W 009°22'3 1.7
2017-Sep-18 04:18N 39°20' W 009°26'2 5.8
2017-Sep-18 04:00N 39°20' W 009°28'3 5.9
2017-Sep-18 03:30N 39°19' W 009°32'3 5.9
2017-Sep-18 03:00N 39°19' W 009°35'4 3.1
2017-Sep-18 01:35N 39°17' W 009°40'1 7.0
2017-Sep-18 01:30N 39°16' W 009°41'3 6.7
2017-Sep-18 01:00N 39°13' W 009°42'3 6.8
2017-Sep-18 00:30N 39°10' W 009°44'3 6.6
2017-Sep-18 00:01N 39°07' W 009°45'3 6.7
2017-Sep-17 23:30N 39°04' W 009°48'3 6.5
2017-Sep-17 23:00N 39°01' W 009°50'5 0.1
2017-Sep-16 01:27N 39°04' W 009°44'3 6.6
2017-Sep-16 01:00N 39°06' W 009°42'3 6.7
2017-Sep-16 00:30N 39°09' W 009°39'3 6.4
2017-Sep-16 00:00N 39°11' W 009°36'3 6.5
2017-Sep-15 23:30N 39°13' W 009°33'3 6.5
2017-Sep-15 23:00N 39°16' W 009°30'3 6.4
2017-Sep-15 22:29N 39°18' W 009°26'2 0.1
2017-Sep-14 22:00N 39°19' W 009°29'9 2.6
2017-Sep-14 18:24N 39°16' W 009°40'0 1.0
2017-Sep-14 17:59N 39°16' W 009°40'1 1.1
2017-Sep-14 17:30N 39°16' W 009°41'0 0.7
2017-Sep-14 17:01N 39°15' W 009°40'4 7.5
2017-Sep-14 16:31N 39°17' W 009°36'4 7.2
2017-Sep-14 16:00N 39°18' W 009°32'3 6.8
2017-Sep-14 15:30N 39°20' W 009°28'  
2017-Sep-11 17:04N 39°15' W 009°43'0 6.6
2017-Sep-11 17:00N 39°16' W 009°42'  

Dump ship's entire track history